O Afonso Pena amanheceu fechado devido a um nevoeiro de superfície. Abriu para operação ILS CAT II as 07:45LT.

METARes desta madrugada:
SBCT 310000Z 34007KT 9999 FEW015 20/18 Q1019=
SBCT 310100Z 32005KT 9999 FEW015 19/17 Q1019=
SBCT 310200Z 13004KT 9999 FEW010 17/17 Q1019=
SBCT 310300Z 15003KT 9999 FEW010 17/17 Q1019=
SBCT 310400Z 05001KT 9999 FEW003 17/16 Q1019=
SBCT 310500Z 06002KT 9999 FEW001 16/16 Q1020=
SBCT 310600Z 09001KT 9999 SCT001 15/15 Q1020=
SBCT 310610Z 10001KT 3000 VCFG BR BKN001 16/16 Q1020=
SBCT 310640Z 08001KT 0800 R15/0800 R33/0900 FG VV000 15/15 Q1019=
SBCT 310700Z 10002KT 0800 R15/0800 R33/0800 FG VV000 16/16 Q1020=
SBCT 310740Z 09002KT 1400 R15/1400 R33/1400 BR SCT001 16/16 Q1020=
SBCT 310800Z 20002KT 1200 R15/1200 R33/1400 BR SCT001 15/15 Q1020=
SBCT 310900Z 10002KT 0500 R15/0500 R33/0500 FG VV/// 14/14 Q1020=
SBCT 310940Z 12002KT 0800 R15/0800 R33/0800 FG BKN001 16/16 Q1021=